Time;durP1;ratioP1;P1;durP2;ratioP2;P2;SDS_P1;SDS_P2;PMS_P1;PMS_P2;Temp;Humidity;BMP_temperature;BMP_pressure;BME280_temperature;BME280_humidity;BME280_pressure;Samples;Min_cycle;Max_cycle;Signal;HPM_P1;HPM_P2
2023/01/01 00:00:52;;;;;;;16.60;6.13;;;15.30;81.40;;;;;;9175863;19;20314;-71
2023/01/01 00:03:58;;;;;;;14.85;5.43;;;15.30;81.40;;;;;;9176514;19;20015;-71
2023/01/01 00:07:02;;;;;;;14.88;5.53;;;15.30;81.30;;;;;;9173550;19;20034;-72
2023/01/01 00:13:25;;;;;;;30.33;10.35;;;15.30;81.40;;;;;;9171818;19;20427;-70
2023/01/01 00:16:29;;;;;;;22.25;6.57;;;15.30;81.50;;;;;;9170401;19;20022;-71
2023/01/01 00:19:32;;;;;;;16.48;6.15;;;15.20;81.30;;;;;;9171176;19;20511;-71
2023/01/01 00:22:36;;;;;;;24.67;8.05;;;15.20;81.30;;;;;;9172339;19;20025;-71
2023/01/01 00:26:00;;;;;;;23.00;8.68;;;15.20;81.30;;;;;;9169137;19;20018;-70
2023/01/01 00:29:05;;;;;;;21.55;9.60;;;15.20;81.30;;;;;;9173020;19;20014;-70
2023/01/01 00:32:11;;;;;;;21.20;9.95;;;15.20;81.30;;;;;;9173904;19;20436;-69
2023/01/01 00:35:15;;;;;;;22.55;9.38;;;15.10;81.30;;;;;;9176608;19;20021;-70
2023/01/01 00:38:18;;;;;;;24.73;9.02;;;15.10;81.20;;;;;;9175542;19;20018;-71
2023/01/01 00:41:24;;;;;;;21.67;9.18;;;15.10;81.30;;;;;;9174404;19;20018;-70
2023/01/01 00:44:28;;;;;;;29.15;10.55;;;15.00;81.20;;;;;;9175187;19;20035;-71
2023/01/01 00:47:32;;;;;;;29.60;11.80;;;15.10;81.30;;;;;;9174538;19;20051;-70
2023/01/01 00:50:36;;;;;;;28.83;10.20;;;15.00;81.30;;;;;;9172507;19;20011;-71
2023/01/01 00:53:40;;;;;;;43.67;9.88;;;15.00;81.40;;;;;;9177097;19;20010;-71
2023/01/01 00:56:45;;;;;;;25.70;10.80;;;14.90;80.80;;;;;;9173784;19;20022;-70
2023/01/01 00:59:49;;;;;;;35.08;9.90;;;14.90;81.30;;;;;;9175172;19;20380;-71
2023/01/01 01:02:53;;;;;;;23.23;9.35;;;14.90;81.40;;;;;;9173229;19;20018;-71
2023/01/01 01:05:58;;;;;;;21.50;10.27;;;14.80;81.30;;;;;;9174975;19;20042;-70
2023/01/01 01:09:03;;;;;;;19.25;8.70;;;14.90;81.40;;;;;;9173478;19;20502;-70
2023/01/01 01:12:09;;;;;;;20.17;9.38;;;14.80;81.40;;;;;;9174392;19;20037;-71
2023/01/01 01:15:22;;;;;;;22.48;7.85;;;14.80;81.40;;;;;;9176635;19;20703;-70
2023/01/01 01:18:26;;;;;;;19.00;7.45;;;14.70;81.40;;;;;;9176540;19;20044;-70
2023/01/01 01:21:32;;;;;;;16.20;7.35;;;14.70;81.50;;;;;;9172925;19;20015;-70
2023/01/01 01:24:36;;;;;;;20.13;7.82;;;14.70;81.50;;;;;;9173396;19;20675;-70
2023/01/01 01:27:42;;;;;;;21.88;8.75;;;14.70;81.60;;;;;;9173581;19;20019;-71
2023/01/01 01:30:45;;;;;;;21.13;8.05;;;14.60;81.60;;;;;;9174433;19;20487;-70
2023/01/01 01:33:50;;;;;;;18.02;8.32;;;14.60;81.70;;;;;;9175094;19;20014;-70
2023/01/01 01:36:54;;;;;;;23.58;8.80;;;14.60;81.80;;;;;;9173866;19;20027;-70
2023/01/01 01:39:58;;;;;;;28.63;11.13;;;14.50;81.80;;;;;;9173319;19;20018;-70
2023/01/01 01:43:04;;;;;;;25.48;9.20;;;14.50;81.90;;;;;;9173926;19;20011;-69
2023/01/01 01:46:11;;;;;;;21.38;8.43;;;14.50;81.90;;;;;;9173332;19;20025;-70
2023/01/01 01:49:21;;;;;;;23.55;8.43;;;14.50;82.00;;;;;;9168113;19;20026;-69
2023/01/01 01:52:26;;;;;;;20.75;9.40;;;14.50;82.10;;;;;;9174052;19;20018;-69
2023/01/01 01:55:31;;;;;;;22.65;8.45;;;14.40;82.00;;;;;;9171609;19;20027;-69
2023/01/01 01:58:37;;;;;;;20.00;8.88;;;14.40;82.10;;;;;;9172047;19;20018;-68
2023/01/01 02:01:41;;;;;;;23.48;8.40;;;14.40;82.20;;;;;;9174380;19;20022;-69
2023/01/01 02:04:45;;;;;;;;;;;14.30;82.20;;;;;;9175724;19;20022;-68
2023/01/01 02:07:49;;;;;;;16.13;8.30;;;14.40;82.30;;;;;;9169504;19;19923;-69
2023/01/01 02:10:53;;;;;;;21.60;9.82;;;14.30;82.30;;;;;;9173686;19;20019;-69
2023/01/01 02:14:01;;;;;;;19.83;9.95;;;14.30;82.30;;;;;;9173395;19;20014;-70
2023/01/01 02:17:10;;;;;;;22.35;9.70;;;14.30;82.40;;;;;;9173949;19;20014;-69
2023/01/01 02:20:25;;;;;;;27.13;10.05;;;14.20;82.40;;;;;;9174035;19;20347;-69
2023/01/01 02:23:58;;;;;;;26.52;11.27;;;14.30;82.50;;;;;;9173328;19;20021;-69
2023/01/01 02:27:07;;;;;;;28.42;9.80;;;14.20;82.40;;;;;;9171021;19;20085;-69
2023/01/01 02:30:14;;;;;;;32.80;12.57;;;14.20;82.50;;;;;;9173217;19;20089;-69
2023/01/01 02:33:22;;;;;;;24.70;9.60;;;14.20;82.50;;;;;;9168934;19;20025;-69
2023/01/01 02:36:27;;;;;;;21.77;8.32;;;14.20;82.60;;;;;;9170033;19;20003;-68
2023/01/01 02:39:35;;;;;;;25.40;9.55;;;14.20;82.60;;;;;;9171969;19;20048;-68
2023/01/01 02:42:39;;;;;;;18.50;7.85;;;14.10;82.60;;;;;;9171334;19;20019;-68
2023/01/01 02:45:45;;;;;;;22.83;11.82;;;14.10;83.20;;;;;;9172390;19;20050;-69
2023/01/01 02:48:51;;;;;;;19.63;9.85;;;14.10;82.60;;;;;;9169847;19;20061;-69
2023/01/01 02:52:03;;;;;;;16.42;8.75;;;14.10;82.60;;;;;;9167948;19;20018;-69
2023/01/01 02:55:17;;;;;;;17.67;6.55;;;14.10;82.60;;;;;;9168782;19;20022;-69
2023/01/01 03:01:57;;;;;;;20.45;4.97;;;14.10;82.60;;;;;;9171882;19;20014;-68
2023/01/01 03:05:09;;;;;;;17.98;5.57;;;14.00;82.50;;;;;;9172999;19;20015;-68
2023/01/01 03:08:17;;;;;;;16.77;4.15;;;14.10;82.60;;;;;;9167854;19;20037;-69
2023/01/01 03:11:24;;;;;;;13.85;3.55;;;14.00;82.50;;;;;;9170677;19;20106;-69
2023/01/01 03:14:39;;;;;;;11.50;3.13;;;14.00;82.50;;;;;;9169848;19;20014;-69
2023/01/01 03:17:51;;;;;;;12.65;3.60;;;14.00;81.80;;;;;;9172596;19;20011;-69
2023/01/01 03:20:57;;;;;;;15.52;3.15;;;14.00;82.30;;;;;;9171673;19;20014;-70
2023/01/01 03:24:01;;;;;;;10.68;3.60;;;14.00;82.30;;;;;;9175485;19;20015;-70
2023/01/01 03:27:07;;;;;;;;;;;14.00;82.20;;;;;;9173096;19;20022;-69
2023/01/01 03:30:13;;;;;;;18.08;2.88;;;14.00;82.30;;;;;;9176249;19;19959;-70
2023/01/01 03:33:24;;;;;;;10.23;2.17;;;14.00;82.30;;;;;;9176804;19;20467;-70
2023/01/01 03:36:32;;;;;;;9.90;3.63;;;14.00;82.20;;;;;;9176840;19;20052;-69
2023/01/01 03:39:41;;;;;;;11.65;2.42;;;14.00;82.20;;;;;;9177511;19;20352;-70
2023/01/01 03:42:51;;;;;;;6.93;2.85;;;14.00;82.10;;;;;;9173070;19;20023;-70
2023/01/01 03:45:56;;;;;;;9.30;2.90;;;14.00;82.00;;;;;;9177173;19;20015;-71
2023/01/01 03:49:03;;;;;;;7.82;2.50;;;14.00;82.00;;;;;;9169314;19;20018;-69
2023/01/01 03:52:21;;;;;;;7.60;2.42;;;14.00;81.90;;;;;;9172038;19;20066;-71
2023/01/01 03:55:32;;;;;;;11.63;2.72;;;14.00;81.70;;;;;;9172751;19;20014;-70
2023/01/01 03:58:42;;;;;;;7.43;2.33;;;14.00;81.70;;;;;;9170211;19;20061;-71
2023/01/01 04:01:51;;;;;;;15.90;3.88;;;14.00;81.70;;;;;;9172337;19;20046;-69
2023/01/01 04:04:58;;;;;;;8.07;2.30;;;14.00;81.60;;;;;;9170013;19;20559;-68
2023/01/01 04:08:03;;;;;;;12.35;2.70;;;14.10;81.60;;;;;;9166199;19;20014;-68
2023/01/01 04:14:29;;;;;;;17.52;2.50;;;14.10;81.40;;;;;;9175434;19;20014;-71
2023/01/01 04:17:32;;;;;;;19.90;3.13;;;14.10;81.30;;;;;;9176200;19;20934;-71
2023/01/01 04:20:38;;;;;;;9.77;2.28;;;14.10;81.30;;;;;;9176868;19;20031;-71
2023/01/01 04:23:42;;;;;;;5.40;2.40;;;14.10;81.10;;;;;;9176562;19;20009;-71
2023/01/01 04:26:46;;;;;;;11.52;2.33;;;14.10;81.10;;;;;;9175686;19;20015;-70
2023/01/01 04:29:50;;;;;;;18.60;2.50;;;14.10;81.00;;;;;;9175603;19;20019;-70
2023/01/01 04:32:53;;;;;;;;;;;14.10;81.00;;;;;;9175438;19;20015;-70
2023/01/01 04:36:04;;;;;;;11.30;2.30;;;14.10;81.00;;;;;;9180707;19;19930;-69
2023/01/01 04:39:08;;;;;;;10.43;2.28;;;14.10;80.90;;;;;;9184017;19;20014;-69
2023/01/01 04:42:12;;;;;;;6.50;2.33;;;14.10;81.00;;;;;;9182924;19;20014;-71
2023/01/01 04:45:16;;;;;;;7.72;2.00;;;14.10;80.90;;;;;;9181906;19;20055;-71
2023/01/01 04:48:20;;;;;;;11.57;2.42;;;14.10;80.80;;;;;;9180861;19;20050;-70
2023/01/01 04:51:26;;;;;;;8.45;2.00;;;14.10;80.70;;;;;;9178888;19;20362;-71
2023/01/01 04:54:29;;;;;;;8.50;1.98;;;14.20;80.70;;;;;;9183934;19;20050;-70
2023/01/01 04:57:33;;;;;;;6.05;2.42;;;14.10;80.60;;;;;;9184051;19;20015;-71
2023/01/01 05:00:37;;;;;;;9.55;2.17;;;14.10;80.50;;;;;;9182066;19;20021;-70
2023/01/01 05:03:41;;;;;;;12.18;2.17;;;14.20;80.50;;;;;;9183107;19;20019;-71
2023/01/01 05:06:47;;;;;;;8.45;2.72;;;14.20;81.10;;;;;;9182139;19;20333;-71
2023/01/01 05:09:50;;;;;;;7.57;2.40;;;14.20;80.40;;;;;;9181940;19;20361;-71
2023/01/01 05:12:54;;;;;;;5.50;2.30;;;14.20;80.30;;;;;;9182865;19;20014;-71
2023/01/01 05:15:58;;;;;;;10.48;2.10;;;14.20;80.30;;;;;;9181078;19;20035;-71
2023/01/01 05:19:02;;;;;;;14.70;2.00;;;14.20;80.30;;;;;;9183099;19;20006;-70
2023/01/01 05:22:08;;;;;;;10.35;2.63;;;14.20;80.20;;;;;;9183610;19;20460;-71
2023/01/01 05:25:14;;;;;;;13.18;2.72;;;14.20;80.20;;;;;;9182406;19;20010;-71
2023/01/01 05:28:18;;;;;;;10.27;1.95;;;14.30;80.20;;;;;;9178777;19;20018;-70
2023/01/01 05:31:23;;;;;;;7.88;2.20;;;14.20;80.20;;;;;;9181512;19;20426;-71
2023/01/01 05:34:28;;;;;;;7.80;2.10;;;14.20;80.20;;;;;;9180955;19;20391;-71
2023/01/01 05:37:36;;;;;;;9.43;1.77;;;14.20;80.20;;;;;;9182595;19;20015;-71
2023/01/01 05:40:40;;;;;;;12.45;2.08;;;14.20;80.30;;;;;;9181976;19;20364;-71
2023/01/01 05:43:45;;;;;;;10.38;2.42;;;14.30;80.30;;;;;;9178913;19;20406;-71
2023/01/01 05:46:48;;;;;;;7.63;2.45;;;14.20;80.30;;;;;;9179796;19;20018;-70
2023/01/01 05:49:53;;;;;;;10.07;3.25;;;14.20;80.30;;;;;;9177888;19;20360;-71
2023/01/01 05:52:58;;;;;;;9.20;1.73;;;14.20;81.00;;;;;;9181103;19;20022;-71
2023/01/01 05:56:03;;;;;;;8.63;2.10;;;14.10;82.50;;;;;;9182293;19;20017;-71
2023/01/01 05:59:06;;;;;;;5.28;1.85;;;14.20;80.50;;;;;;9178845;19;20010;-72
2023/01/01 06:02:10;;;;;;;8.52;2.83;;;14.20;79.90;;;;;;9179551;19;20367;-71
2023/01/01 06:05:14;;;;;;;;;;;14.20;80.50;;;;;;9181728;19;20397;-72
2023/01/01 06:08:19;;;;;;;10.75;2.25;;;14.20;80.50;;;;;;9176232;19;20272;-71
2023/01/01 06:11:23;;;;;;;6.95;1.88;;;14.20;80.50;;;;;;9180980;19;20007;-71
2023/01/01 06:14:27;;;;;;;7.85;2.40;;;14.20;80.50;;;;;;9180093;19;20030;-71
2023/01/01 06:17:31;;;;;;;11.13;2.47;;;14.30;80.50;;;;;;9180832;19;20039;-71
2023/01/01 06:20:35;;;;;;;14.85;2.22;;;14.20;80.40;;;;;;9181110;19;20020;-70
2023/01/01 06:23:41;;;;;;;3.83;1.50;;;14.20;80.40;;;;;;9180863;19;20113;-70
2023/01/01 06:26:45;;;;;;;5.78;1.58;;;14.20;80.40;;;;;;9177506;19;20006;-71
2023/01/01 06:29:48;;;;;;;9.68;2.13;;;14.20;80.30;;;;;;9180514;19;20490;-72
2023/01/01 06:32:54;;;;;;;4.75;1.90;;;14.20;80.20;;;;;;9180736;19;20015;-71
2023/01/01 06:35:58;;;;;;;9.65;2.53;;;14.30;80.20;;;;;;9181156;19;20027;-70
2023/01/01 06:39:04;;;;;;;;;;;14.30;80.00;;;;;;9178038;19;20022;-71
2023/01/01 06:42:08;;;;;;;8.70;2.08;;;14.30;80.10;;;;;;9179801;19;19929;-71
2023/01/01 06:45:12;;;;;;;8.23;2.00;;;14.30;80.10;;;;;;9179855;19;20014;-72
2023/01/01 06:48:16;;;;;;;8.73;2.45;;;14.30;79.50;;;;;;9176897;19;20377;-70
2023/01/01 06:51:21;;;;;;;6.03;1.90;;;14.30;79.90;;;;;;9175667;19;20014;-70
2023/01/01 06:54:27;;;;;;;2.67;1.13;;;14.30;79.80;;;;;;9179581;19;20011;-71
2023/01/01 06:57:33;;;;;;;3.55;1.42;;;14.30;79.60;;;;;;9180025;19;20007;-70
2023/01/01 07:00:37;;;;;;;3.17;1.23;;;14.30;79.50;;;;;;9177280;19;20014;-71
2023/01/01 07:03:41;;;;;;;5.10;1.15;;;14.30;79.20;;;;;;9176779;19;20038;-72
2023/01/01 07:06:46;;;;;;;6.05;1.85;;;14.30;79.00;;;;;;9177999;19;20625;-69
2023/01/01 07:09:51;;;;;;;4.25;1.33;;;14.30;78.80;;;;;;9179247;19;20022;-72
2023/01/01 07:12:55;;;;;;;6.63;1.40;;;14.30;78.70;;;;;;9179137;19;20014;-71
2023/01/01 07:15:59;;;;;;;2.95;0.70;;;14.40;78.60;;;;;;9178161;19;20467;-71
2023/01/01 07:19:02;;;;;;;;;;;14.40;78.50;;;;;;9179968;19;20018;-71
2023/01/01 07:22:06;;;;;;;4.82;1.05;;;14.30;78.50;;;;;;9178238;19;19918;-70
2023/01/01 07:25:15;;;;;;;8.07;0.95;;;14.40;78.50;;;;;;9178763;19;20018;-72
2023/01/01 07:28:21;;;;;;;2.70;0.73;;;14.40;78.20;;;;;;9175017;19;20011;-72
2023/01/01 07:31:25;;;;;;;5.22;0.85;;;14.30;78.10;;;;;;9177514;19;20510;-72
2023/01/01 07:34:28;;;;;;;4.72;0.80;;;14.30;78.60;;;;;;9176626;19;20474;-70
2023/01/01 07:37:32;;;;;;;2.67;1.05;;;14.30;77.90;;;;;;9178630;19;20042;-71
2023/01/01 07:40:38;;;;;;;2.65;0.73;;;14.30;77.70;;;;;;9179158;19;20021;-72
2023/01/01 07:43:42;;;;;;;5.80;1.35;;;14.30;77.50;;;;;;9175722;19;20116;-71
2023/01/01 07:46:45;;;;;;;;;;;14.30;77.40;;;;;;9177687;19;20021;-70
2023/01/01 07:49:49;;;;;;;11.40;1.38;;;14.20;77.40;;;;;;9173820;19;19918;-71
2023/01/01 07:52:53;;;;;;;3.58;0.75;;;14.20;77.60;;;;;;9177577;19;20474;-71
2023/01/01 07:55:59;;;;;;;5.35;0.68;;;14.20;77.30;;;;;;9176051;19;20045;-72
2023/01/01 07:59:02;;;;;;;3.45;0.82;;;14.20;77.20;;;;;;9177240;19;20463;-71
2023/01/01 08:02:06;;;;;;;5.15;0.85;;;14.10;77.70;;;;;;9177427;19;20046;-71
2023/01/01 08:05:10;;;;;;;3.67;1.00;;;14.20;77.00;;;;;;9175789;19;20015;-71
2023/01/01 08:08:14;;;;;;;5.25;0.85;;;14.10;76.90;;;;;;9174130;19;20038;-71
2023/01/01 08:11:20;;;;;;;6.32;1.05;;;14.10;76.80;;;;;;9182434;19;20043;-70
2023/01/01 08:14:24;;;;;;;3.22;1.35;;;14.10;76.70;;;;;;9184953;19;20096;-71
2023/01/01 08:17:29;;;;;;;4.18;0.90;;;14.10;76.80;;;;;;9184745;19;20019;-71
2023/01/01 08:20:34;;;;;;;5.93;1.80;;;14.00;76.70;;;;;;9184614;19;20010;-70
2023/01/01 08:23:38;;;;;;;3.13;0.90;;;14.00;76.70;;;;;;9184881;19;20414;-71
2023/01/01 08:26:44;;;;;;;2.35;0.68;;;14.00;76.70;;;;;;9182332;19;20014;-71
2023/01/01 08:29:48;;;;;;;4.88;0.90;;;13.90;76.60;;;;;;9183513;19;20770;-70
2023/01/01 08:32:51;;;;;;;13.05;0.82;;;13.90;76.70;;;;;;9180497;19;20018;-71
2023/01/01 08:35:55;;;;;;;6.32;1.35;;;13.90;76.70;;;;;;9183254;19;20082;-70
2023/01/01 08:38:59;;;;;;;6.40;0.80;;;13.80;76.60;;;;;;9183257;19;20010;-71
2023/01/01 08:42:05;;;;;;;5.10;0.68;;;13.80;76.60;;;;;;9182979;19;20035;-71
2023/01/01 08:45:15;;;;;;;4.60;0.85;;;13.80;76.60;;;;;;9183511;19;20018;-72
2023/01/01 08:48:19;;;;;;;5.22;1.10;;;13.70;76.60;;;;;;9182608;19;20014;-72
2023/01/01 08:51:27;;;;;;;11.02;2.22;;;13.70;76.70;;;;;;9179578;19;20021;-72
2023/01/01 08:54:31;;;;;;;4.75;1.10;;;13.60;76.50;;;;;;9183837;19;20017;-71
2023/01/01 08:57:36;;;;;;;7.97;1.23;;;13.60;76.50;;;;;;9183755;19;20034;-72
2023/01/01 09:00:40;;;;;;;4.68;1.30;;;13.60;76.60;;;;;;9183747;19;20019;-71
2023/01/01 09:03:44;;;;;;;3.70;0.47;;;13.50;76.50;;;;;;9180661;19;20014;-72
2023/01/01 09:06:48;;;;;;;2.33;0.80;;;13.50;76.60;;;;;;9181567;19;20022;-71
2023/01/01 09:09:51;;;;;;;2.80;0.80;;;13.50;76.60;;;;;;9184013;19;20010;-72
2023/01/01 09:12:57;;;;;;;6.88;1.23;;;13.50;76.60;;;;;;9183034;19;20034;-72
2023/01/01 09:16:01;;;;;;;5.38;0.77;;;13.40;76.60;;;;;;9182855;19;20031;-70
2023/01/01 09:19:07;;;;;;;5.70;0.57;;;13.40;76.70;;;;;;9181750;19;20475;-70
2023/01/01 09:22:12;;;;;;;3.47;0.80;;;13.40;76.70;;;;;;9180840;19;20037;-70
2023/01/01 09:25:16;;;;;;;4.22;1.13;;;13.40;76.80;;;;;;9183187;19;20044;-72
2023/01/01 09:28:21;;;;;;;6.18;0.98;;;13.30;76.80;;;;;;9180408;19;20025;-71
2023/01/01 09:31:29;;;;;;;9.52;1.33;;;13.30;76.70;;;;;;9177489;19;20094;-70
2023/01/01 09:34:33;;;;;;;6.70;0.93;;;13.30;76.80;;;;;;9181975;19;20015;-71
2023/01/01 09:37:36;;;;;;;3.60;0.90;;;13.30;76.90;;;;;;9171797;19;20029;-69
2023/01/01 09:40:53;;;;;;;7.43;1.17;;;13.30;76.90;;;;;;9174813;19;20018;-71
2023/01/01 09:44:07;;;;;;;11.50;2.38;;;13.20;76.80;;;;;;9174439;19;20006;-72
2023/01/01 09:47:22;;;;;;;11.30;1.65;;;13.20;76.90;;;;;;9173829;19;20475;-70
2023/01/01 09:50:32;;;;;;;8.73;1.30;;;13.20;76.90;;;;;;9170291;19;20021;-71
2023/01/01 09:53:42;;;;;;;6.63;1.27;;;13.20;77.00;;;;;;9172788;19;20010;-69
2023/01/01 09:56:47;;;;;;;10.27;1.17;;;13.20;77.10;;;;;;9172467;19;20014;-70
2023/01/01 09:59:53;;;;;;;7.47;1.52;;;13.20;77.10;;;;;;9173789;19;20015;-70
2023/01/01 10:03:21;;;;;;;8.75;1.52;;;13.20;77.10;;;;;;9175273;19;20029;-71
2023/01/01 10:06:29;;;;;;;10.05;1.88;;;13.20;77.10;;;;;;9174263;19;20014;-71
2023/01/01 10:09:45;;;;;;;9.82;1.75;;;13.20;77.20;;;;;;9173938;19;20056;-71
2023/01/01 10:12:55;;;;;;;8.63;1.00;;;13.20;77.20;;;;;;9173416;19;20014;-70
2023/01/01 10:16:05;;;;;;;3.10;0.90;;;13.20;77.30;;;;;;9172400;19;20543;-69
2023/01/01 10:19:23;;;;;;;3.92;1.02;;;13.20;77.30;;;;;;9180677;19;20356;-70
2023/01/01 10:22:32;;;;;;;7.93;1.08;;;13.30;77.30;;;;;;9179927;19;20030;-70
2023/01/01 10:25:37;;;;;;;11.82;1.50;;;13.30;77.40;;;;;;9175788;19;20342;-69
2023/01/01 10:28:47;;;;;;;4.82;1.20;;;13.30;77.40;;;;;;9174068;19;20022;-70
2023/01/01 10:31:55;;;;;;;6.63;1.50;;;13.40;77.60;;;;;;9173747;19;20029;-69
2023/01/01 10:35:00;;;;;;;6.25;1.20;;;13.40;77.50;;;;;;9174400;19;20024;-70
2023/01/01 10:38:05;;;;;;;11.43;1.50;;;13.40;77.50;;;;;;9174181;19;20014;-71
2023/01/01 10:41:11;;;;;;;10.52;2.25;;;13.50;77.50;;;;;;9167960;19;20018;-71
2023/01/01 10:44:29;;;;;;;6.68;1.10;;;13.50;77.50;;;;;;9168976;19;20042;-71
2023/01/01 10:47:34;;;;;;;6.45;1.52;;;13.50;77.50;;;;;;9162697;19;20278;-71
2023/01/01 10:50:44;;;;;;;10.27;1.35;;;13.50;77.60;;;;;;9159300;19;20018;-71
2023/01/01 10:53:52;;;;;;;8.45;1.90;;;13.60;77.60;;;;;;9170399;19;20573;-68
2023/01/01 10:56:56;;;;;;;10.70;1.67;;;13.60;77.60;;;;;;9164032;19;20476;-70
2023/01/01 11:00:13;;;;;;;10.38;1.48;;;13.60;77.60;;;;;;9166384;19;20014;-70
2023/01/01 11:03:21;;;;;;;7.07;1.70;;;13.50;77.50;;;;;;9161095;19;20026;-71
2023/01/01 11:06:26;;;;;;;12.52;1.33;;;13.60;77.60;;;;;;9167761;19;20034;-71
2023/01/01 11:09:31;;;;;;;9.65;1.38;;;13.60;77.70;;;;;;9167346;19;20029;-72
2023/01/01 11:12:37;;;;;;;14.75;1.95;;;13.60;77.70;;;;;;9162017;19;20018;-69
2023/01/01 11:16:02;;;;;;;12.40;1.70;;;13.60;77.70;;;;;;9172319;19;20359;-71
2023/01/01 11:19:09;;;;;;;9.05;1.85;;;13.60;77.80;;;;;;9170787;19;20015;-69
2023/01/01 11:22:33;;;;;;;6.57;1.42;;;13.60;77.80;;;;;;9169468;19;20010;-72
2023/01/01 11:25:36;;;;;;;8.70;1.60;;;13.60;77.80;;;;;;9172221;19;20035;-71
2023/01/01 11:28:41;;;;;;;9.60;1.88;;;13.60;77.90;;;;;;9175045;19;20022;-71
2023/01/01 11:31:48;;;;;;;13.68;2.08;;;13.60;77.90;;;;;;9171528;19;20022;-72
2023/01/01 11:35:00;;;;;;;6.97;1.38;;;13.60;78.00;;;;;;9172707;19;20023;-70
2023/01/01 11:38:04;;;;;;;6.00;1.52;;;13.60;78.00;;;;;;9171199;19;20015;-70
2023/01/01 11:41:08;;;;;;;9.25;1.65;;;13.60;78.00;;;;;;9159196;19;21178;-71
2023/01/01 11:44:22;;;;;;;11.50;1.65;;;13.60;78.10;;;;;;9162437;19;20020;-70
2023/01/01 11:47:30;;;;;;;8.90;1.70;;;13.60;78.20;;;;;;9159215;19;20483;-71
2023/01/01 11:50:37;;;;;;;8.13;2.08;;;13.60;78.20;;;;;;9169336;19;20023;-72
2023/01/01 11:53:42;;;;;;;10.20;2.47;;;13.60;78.30;;;;;;9174989;19;20037;-70
2023/01/01 11:56:47;;;;;;;7.95;2.40;;;13.60;78.30;;;;;;9177124;19;20048;-71
2023/01/01 11:59:56;;;;;;;6.88;2.15;;;13.70;78.40;;;;;;9176494;19;20022;-71
2023/01/01 12:03:02;;;;;;;14.65;4.93;;;13.60;78.40;;;;;;9175031;19;20371;-71
2023/01/01 12:06:12;;;;;;;11.98;3.33;;;13.60;78.50;;;;;;9176555;19;20382;-71
2023/01/01 12:09:23;;;;;;;12.20;2.55;;;13.60;78.60;;;;;;9173413;19;20018;-71
2023/01/01 12:12:31;;;;;;;23.13;4.25;;;13.60;78.70;;;;;;9177306;19;20014;-70
2023/01/01 12:15:39;;;;;;;23.95;7.63;;;13.60;78.70;;;;;;9176841;19;20026;-71
2023/01/01 12:18:48;;;;;;;17.50;4.85;;;13.60;78.70;;;;;;9176387;19;20021;-72
2023/01/01 12:21:58;;;;;;;28.30;10.88;;;13.60;78.80;;;;;;9176582;19;20132;-71
2023/01/01 12:25:04;;;;;;;18.48;7.60;;;13.60;78.80;;;;;;9176397;19;20019;-70
2023/01/01 12:28:20;;;;;;;20.50;7.18;;;13.60;78.90;;;;;;9172782;19;20018;-71
2023/01/01 12:31:35;;;;;;;29.45;10.80;;;13.60;78.90;;;;;;9174822;19;20018;-72
2023/01/01 12:34:49;;;;;;;69.38;37.50;;;13.60;78.90;;;;;;9174038;19;20025;-70
2023/01/01 12:38:03;;;;;;;56.40;31.38;;;13.50;78.90;;;;;;9174367;19;20018;-71
2023/01/01 12:41:09;;;;;;;;;;;13.50;79.00;;;;;;9177444;19;20017;-71
2023/01/01 12:44:25;;;;;;;27.30;8.82;;;13.60;78.60;;;;;;9174409;19;19931;-71
2023/01/01 12:47:41;;;;;;;19.35;5.82;;;13.50;79.10;;;;;;9174514;19;20025;-69
2023/01/01 12:50:52;;;;;;;28.05;9.15;;;13.60;79.20;;;;;;9170098;19;20487;-71
2023/01/01 12:54:32;;;;;;;15.30;4.50;;;13.60;79.20;;;;;;9175101;19;20417;-71
2023/01/01 12:57:40;;;;;;;11.77;4.80;;;13.60;79.30;;;;;;9178459;19;20014;-71
2023/01/01 13:00:53;;;;;;;17.83;4.38;;;13.60;79.20;;;;;;9182614;19;20042;-71
2023/01/01 13:03:59;;;;;;;14.90;5.13;;;13.60;79.30;;;;;;9184161;19;20042;-71
2023/01/01 13:07:07;;;;;;;14.93;3.67;;;13.60;79.40;;;;;;9184833;19;20002;-71
2023/01/01 13:10:24;;;;;;;14.82;4.25;;;13.60;79.40;;;;;;9182909;19;20025;-72
2023/01/01 13:13:28;;;;;;;18.13;5.60;;;13.60;79.50;;;;;;9182586;19;20041;-71
2023/01/01 13:16:35;;;;;;;11.65;3.22;;;13.60;79.50;;;;;;9181920;19;20022;-71
2023/01/01 13:19:39;;;;;;;13.35;3.10;;;13.60;79.60;;;;;;9182701;19;20011;-71
2023/01/01 13:22:45;;;;;;;9.40;3.90;;;13.60;79.50;;;;;;9182779;19;20027;-71
2023/01/01 13:26:26;;;;;;;17.70;3.17;;;13.60;79.60;;;;;;9183513;19;20015;-71
2023/01/01 13:29:34;;;;;;;12.50;3.08;;;13.60;79.70;;;;;;9177905;19;20022;-71
2023/01/01 13:33:28;;;;;;;13.48;3.65;;;13.70;79.70;;;;;;9182637;19;20018;-71
2023/01/01 13:36:33;;;;;;;9.32;3.72;;;13.70;79.80;;;;;;9179920;19;20049;-69
2023/01/01 13:39:53;;;;;;;16.25;2.88;;;13.70;79.80;;;;;;9170115;19;20041;-70
2023/01/01 13:43:26;;;;;;;8.32;2.80;;;13.70;79.90;;;;;;9167533;19;20018;-70
2023/01/01 13:46:39;;;;;;;12.45;2.65;;;13.70;80.00;;;;;;9172883;19;20498;-69
2023/01/01 13:50:03;;;;;;;9.13;2.92;;;13.70;80.00;;;;;;9167593;19;20026;-70
2023/01/01 13:53:22;;;;;;;12.65;3.65;;;13.70;80.00;;;;;;9174482;19;20054;-70
2023/01/01 13:56:37;;;;;;;10.90;3.03;;;13.70;80.00;;;;;;9173858;19;20352;-70
2023/01/01 13:59:55;;;;;;;8.65;2.65;;;13.70;80.10;;;;;;9173207;19;20022;-69
2023/01/01 14:03:02;;;;;;;8.38;2.70;;;13.70;80.10;;;;;;9171872;19;20018;-70
2023/01/01 14:06:12;;;;;;;11.95;3.00;;;13.70;80.10;;;;;;9175543;19;20381;-69
2023/01/01 14:09:16;;;;;;;16.73;4.35;;;13.70;80.10;;;;;;9168931;19;20010;-70
2023/01/01 14:12:22;;;;;;;12.35;3.95;;;13.70;80.20;;;;;;9174781;19;20530;-71
2023/01/01 14:15:31;;;;;;;13.30;3.80;;;13.70;80.20;;;;;;9174733;19;20021;-71
2023/01/01 14:18:39;;;;;;;13.38;3.22;;;13.70;80.20;;;;;;9174296;19;20402;-68
2023/01/01 14:21:43;;;;;;;14.57;2.85;;;13.70;80.20;;;;;;9172329;19;20018;-71
2023/01/01 14:24:49;;;;;;;13.43;3.20;;;13.70;80.30;;;;;;9174714;19;20030;-70
2023/01/01 14:27:54;;;;;;;12.30;3.30;;;13.70;80.30;;;;;;9172549;19;20041;-71
2023/01/01 14:31:01;;;;;;;11.20;2.67;;;13.70;80.40;;;;;;9174488;19;20011;-69
2023/01/01 14:34:15;;;;;;;12.63;2.97;;;13.70;80.40;;;;;;9174659;19;20014;-70
2023/01/01 14:37:25;;;;;;;17.75;3.15;;;13.70;80.30;;;;;;9173314;19;20972;-71
2023/01/01 14:40:29;;;;;;;14.88;4.40;;;13.70;80.40;;;;;;9171087;19;20624;-69
2023/01/01 14:43:32;;;;;;;10.40;3.00;;;13.70;80.40;;;;;;9174054;19;20029;-69
2023/01/01 14:46:43;;;;;;;12.45;3.50;;;13.70;80.40;;;;;;9167892;19;20026;-70
2023/01/01 14:49:49;;;;;;;7.95;2.67;;;13.70;80.40;;;;;;9164455;19;20018;-70
2023/01/01 14:52:57;;;;;;;19.88;3.53;;;13.60;80.30;;;;;;9162595;19;20018;-69
2023/01/01 14:56:05;;;;;;;8.52;2.47;;;13.60;80.30;;;;;;9172647;19;20031;-70
2023/01/01 14:59:14;;;;;;;15.68;3.20;;;13.60;80.30;;;;;;9171991;19;20030;-69
2023/01/01 15:02:23;;;;;;;17.95;2.90;;;13.60;80.30;;;;;;9172017;19;20014;-68
2023/01/01 15:05:33;;;;;;;15.93;3.63;;;13.60;80.30;;;;;;9171240;19;20744;-71
2023/01/01 15:08:39;;;;;;;19.52;3.72;;;13.60;80.30;;;;;;9169441;19;20015;-70
2023/01/01 15:11:43;;;;;;;;;;;13.60;80.30;;;;;;9173093;19;20349;-71
2023/01/01 15:14:47;;;;;;;12.23;2.88;;;13.60;80.30;;;;;;9167622;19;19978;-70
2023/01/01 15:17:55;;;;;;;13.18;2.20;;;13.60;80.30;;;;;;9171582;19;20015;-71
2023/01/01 15:21:00;;;;;;;15.75;3.80;;;13.60;80.30;;;;;;9170171;19;20030;-69
2023/01/01 15:24:11;;;;;;;12.02;2.95;;;13.60;80.30;;;;;;9170618;19;20014;-70
2023/01/01 15:27:24;;;;;;;8.27;2.38;;;13.60;80.30;;;;;;9168352;19;20022;-71
2023/01/01 15:30:31;;;;;;;14.35;3.45;;;13.60;80.30;;;;;;9171582;19;20010;-69
2023/01/01 15:33:37;;;;;;;12.65;2.90;;;13.50;80.20;;;;;;9171000;19;20045;-71
2023/01/01 15:36:40;;;;;;;16.30;3.83;;;13.60;80.30;;;;;;9169946;19;20010;-70
2023/01/01 15:39:50;;;;;;;13.70;3.13;;;13.60;80.30;;;;;;9169561;19;20363;-70
2023/01/01 15:43:12;;;;;;;12.20;3.42;;;13.50;80.30;;;;;;9170223;19;20019;-70
2023/01/01 15:46:21;;;;;;;14.02;4.25;;;13.50;80.20;;;;;;9169916;19;20006;-69
2023/01/01 15:49:29;;;;;;;16.20;2.90;;;;;;;;;;9162535;19;20016;-70
2023/01/01 15:52:33;;;;;;;9.68;2.90;;;13.50;79.70;;;;;;9169435;19;20010;-72
2023/01/01 15:55:43;;;;;;;7.20;2.70;;;13.50;80.30;;;;;;9168311;19;20011;-70
2023/01/01 15:58:55;;;;;;;19.25;4.10;;;13.50;80.30;;;;;;9169128;19;20041;-71
2023/01/01 16:02:13;;;;;;;9.93;2.72;;;13.50;80.40;;;;;;9165961;19;20030;-71
2023/01/01 16:05:22;;;;;;;12.88;3.35;;;13.40;80.40;;;;;;9169145;19;20442;-72
2023/01/01 16:08:26;;;;;;;19.25;6.10;;;13.40;80.30;;;;;;9166726;19;20475;-69
2023/01/01 16:11:29;;;;;;;;;;;13.40;80.40;;;;;;9167628;19;20045;-70
2023/01/01 16:14:34;;;;;;;16.25;3.60;;;13.40;80.50;;;;;;9165483;19;19926;-69
2023/01/01 16:17:40;;;;;;;19.88;4.63;;;13.40;80.40;;;;;;9166808;19;20022;-70
2023/01/01 16:20:46;;;;;;;13.57;3.35;;;13.30;80.40;;;;;;9157809;19;20018;-69